createdAt,value
2023-04-02T00:00:19.216Z,12.37
2023-04-02T00:05:40.521Z,10.60
2023-04-02T00:10:49.141Z,12.40
2023-04-02T00:15:54.570Z,12.48
2023-04-02T00:21:05.998Z,11.98
2023-04-02T00:26:21.820Z,13.45
2023-04-02T00:31:24.373Z,13.02
2023-04-02T00:36:30.936Z,12.80
2023-04-02T00:41:33.156Z,12.85
2023-04-02T00:46:41.966Z,13.52
2023-04-02T00:51:50.067Z,13.40
2023-04-02T00:56:54.028Z,15.93
2023-04-02T01:02:00.899Z,15.50
2023-04-02T01:07:07.973Z,14.87
2023-04-02T01:12:39.328Z,15.55
2023-04-02T01:17:54.564Z,15.73
2023-04-02T01:28:09.087Z,15.32
2023-04-02T01:33:12.396Z,15.52
2023-04-02T01:38:19.077Z,14.48
2023-04-02T01:43:28.111Z,14.40
2023-04-02T01:48:31.643Z,15.43
2023-04-02T01:53:33.414Z,14.80
2023-04-02T01:58:35.443Z,15.25
2023-04-02T02:03:40.101Z,14.48
2023-04-02T02:08:47.645Z,14.55
2023-04-02T02:13:53.674Z,15.20
2023-04-02T02:19:00.426Z,14.55
2023-04-02T02:24:03.912Z,15.27
2023-04-02T02:29:08.056Z,14.82
2023-04-02T02:34:18.251Z,16.33
2023-04-02T02:39:24.350Z,15.00
2023-04-02T02:44:29.594Z,15.73
2023-04-02T02:49:36.005Z,15.05
2023-04-02T02:54:43.034Z,14.98
2023-04-02T02:59:46.047Z,14.43
2023-04-02T03:04:51.776Z,15.52
2023-04-02T03:10:02.788Z,15.10
2023-04-02T03:15:12.305Z,14.68
2023-04-02T03:20:19.376Z,13.98
2023-04-02T03:25:31.955Z,15.48
2023-04-02T03:30:42.049Z,14.65
2023-04-02T03:35:53.248Z,15.57
2023-04-02T03:41:03.441Z,14.02
2023-04-02T03:46:13.674Z,14.68
2023-04-02T03:51:20.448Z,15.27
2023-04-02T03:56:27.860Z,13.70
2023-04-02T04:01:34.757Z,14.23
2023-04-02T04:06:42.195Z,14.05
2023-04-02T04:11:46.255Z,15.20
2023-04-02T04:16:53.111Z,14.73
2023-04-02T04:22:08.990Z,13.80
2023-04-02T04:27:19.659Z,13.55
2023-04-02T04:32:28.691Z,14.77
2023-04-02T04:37:35.323Z,14.18
2023-04-02T04:42:39.975Z,14.68
2023-04-02T04:47:47.672Z,13.90
2023-04-02T04:52:50.762Z,14.70
2023-04-02T04:57:57.941Z,15.15
2023-04-02T05:03:06.488Z,16.40
2023-04-02T05:08:14.984Z,15.02
2023-04-02T05:13:22.438Z,13.45
2023-04-02T05:18:29.879Z,14.80
2023-04-02T05:23:37.307Z,15.55
2023-04-02T05:28:44.760Z,16.50
2023-04-02T05:33:48.442Z,15.07
2023-04-02T05:38:53.093Z,16.00
2023-04-02T05:44:03.145Z,17.52
2023-04-02T05:49:13.783Z,16.83
2023-04-02T05:54:23.010Z,17.23
2023-04-02T05:59:28.559Z,17.08
2023-04-02T06:04:36.659Z,17.30
2023-04-02T06:09:44.160Z,17.08
2023-04-02T06:14:46.591Z,17.75
2023-04-02T06:19:49.077Z,17.62
2023-04-02T06:24:57.577Z,17.15
2023-04-02T06:30:05.277Z,17.58
2023-04-02T06:35:12.227Z,16.58
2023-04-02T06:40:33.466Z,16.50
2023-04-02T06:45:41.753Z,17.05
2023-04-02T06:50:46.441Z,17.20
2023-04-02T06:55:54.211Z,16.40
2023-04-02T07:00:56.353Z,17.83
2023-04-02T07:05:59.950Z,17.05
2023-04-02T07:11:03.084Z,12.52
2023-04-02T07:16:05.679Z,11.63
2023-04-02T07:21:07.708Z,11.82
2023-04-02T07:26:13.973Z,12.43
2023-04-02T07:31:17.991Z,11.70
2023-04-02T07:36:23.024Z,11.77
2023-04-02T07:46:28.101Z,11.48
2023-04-02T07:51:29.865Z,11.30
2023-04-02T07:56:32.992Z,11.07
2023-04-02T08:01:34.760Z,12.60
2023-04-02T08:06:36.472Z,12.30
2023-04-02T08:11:39.830Z,12.23
2023-04-02T08:16:47.012Z,12.15
2023-04-02T08:21:49.376Z,10.95
2023-04-02T08:26:52.727Z,11.90
2023-04-02T08:31:54.411Z,12.43
2023-04-02T08:36:57.731Z,12.23
2023-04-02T08:42:06.243Z,11.55
2023-04-02T08:47:09.290Z,12.63
2023-04-02T08:52:21.859Z,12.70
2023-04-02T08:57:35.376Z,11.73
2023-04-02T09:02:41.450Z,11.07
2023-04-02T09:07:43.224Z,13.10
2023-04-02T09:12:51.291Z,10.75
2023-04-02T09:18:00.413Z,12.02
2023-04-02T09:23:02.189Z,12.02
2023-04-02T09:28:05.654Z,12.77
2023-04-02T09:33:07.759Z,11.65
2023-04-02T09:38:19.616Z,13.95
2023-04-02T09:43:24.517Z,12.75
2023-04-02T09:48:28.970Z,12.60
2023-04-02T09:53:33.758Z,13.25
2023-04-02T09:58:36.976Z,13.90
2023-04-02T10:03:42.899Z,11.93
2023-04-02T10:08:45.523Z,12.75
2023-04-02T10:13:53.248Z,13.15
2023-04-02T10:18:58.088Z,11.80
2023-04-02T10:23:59.804Z,13.30
2023-04-02T10:29:25.137Z,12.65
2023-04-02T10:39:39.742Z,12.80
2023-04-02T10:44:54.090Z,13.05
2023-04-02T10:50:11.880Z,10.93
2023-04-02T10:55:18.122Z,12.75
2023-04-02T11:00:25.553Z,12.85
2023-04-02T11:05:32.565Z,13.38
2023-04-02T11:10:38.389Z,12.10
2023-04-02T11:15:41.796Z,12.30
2023-04-02T11:21:05.913Z,11.95
2023-04-02T11:26:34.104Z,13.05
2023-04-02T11:31:37.337Z,13.65
2023-04-02T11:36:58.447Z,12.75
2023-04-02T11:42:03.276Z,12.98
2023-04-02T11:47:20.486Z,13.35
2023-04-02T11:52:26.019Z,12.52
2023-04-02T11:57:57.859Z,13.23
2023-04-02T12:03:23.427Z,12.40
2023-04-02T12:08:41.920Z,13.43
2023-04-02T12:13:53.787Z,13.62
2023-04-02T12:18:58.088Z,12.35
2023-04-02T12:24:00.490Z,14.63
2023-04-02T12:29:15.297Z,12.95
2023-04-02T12:34:19.930Z,13.23
2023-04-02T12:39:22.145Z,11.40
2023-04-02T12:44:25.420Z,13.27
2023-04-02T12:49:36.355Z,13.55
2023-04-02T12:54:45.136Z,14.35
2023-04-02T12:59:46.834Z,12.75
2023-04-02T13:04:51.537Z,12.23
2023-04-02T13:09:54.808Z,12.57
2023-04-02T13:14:57.640Z,14.00
2023-04-02T13:20:31.545Z,12.88
2023-04-02T13:25:36.517Z,14.05
2023-04-02T13:35:42.183Z,14.02
2023-04-02T13:40:44.224Z,13.25
2023-04-02T13:45:49.410Z,15.35
2023-04-02T13:50:53.053Z,14.82
2023-04-02T13:55:54.867Z,16.27
2023-04-02T14:00:56.743Z,14.57
2023-04-02T14:06:06.049Z,14.75
2023-04-02T14:11:21.989Z,14.93
2023-04-02T14:16:41.835Z,15.35
2023-04-02T14:21:56.960Z,14.55
2023-04-02T14:27:09.769Z,16.27
2023-04-02T14:32:19.816Z,16.85
2023-04-02T14:37:28.687Z,17.30
2023-04-02T14:42:36.061Z,17.48
2023-04-02T14:47:42.942Z,15.60
2023-04-02T14:52:50.732Z,16.27
2023-04-02T14:57:54.571Z,16.20
2023-04-02T15:03:04.827Z,16.33
2023-04-02T15:08:15.491Z,16.62
2023-04-02T15:13:22.842Z,15.70
2023-04-02T15:18:24.579Z,16.00
2023-04-02T15:23:38.748Z,17.17
2023-04-02T15:28:46.147Z,16.35
2023-04-02T15:33:54.817Z,16.35
2023-04-02T15:39:03.174Z,16.75
2023-04-02T15:44:10.058Z,15.15
2023-04-02T15:49:26.368Z,16.87
2023-04-02T15:54:45.859Z,17.42
2023-04-02T16:00:00.793Z,16.50
2023-04-02T16:05:05.325Z,16.30
2023-04-02T16:10:20.678Z,16.52
2023-04-02T16:15:34.134Z,17.02
2023-04-02T16:20:40.923Z,15.80
2023-04-02T16:25:52.610Z,16.90
2023-04-02T16:31:02.102Z,15.13
2023-04-02T16:36:15.098Z,14.40
2023-04-02T16:41:25.808Z,16.83
2023-04-02T16:46:40.787Z,16.02
2023-04-02T16:51:51.890Z,15.48
2023-04-02T16:57:16.721Z,16.05
2023-04-02T17:02:28.540Z,16.87
2023-04-02T17:07:35.470Z,17.65
2023-04-02T17:12:44.252Z,15.65
2023-04-02T17:17:46.009Z,15.85
2023-04-02T17:22:48.571Z,17.00
2023-04-02T17:27:54.311Z,16.15
2023-04-02T17:32:56.051Z,15.43
2023-04-02T17:38:03.648Z,14.95
2023-04-02T17:43:13.486Z,17.02
2023-04-02T17:48:21.268Z,15.40
2023-04-02T17:53:35.062Z,17.05
2023-04-02T17:58:58.304Z,14.80
2023-04-02T18:04:09.824Z,14.63
2023-04-02T18:09:31.103Z,16.70
2023-04-02T18:14:51.237Z,15.70
2023-04-02T18:20:00.723Z,16.85
2023-04-02T18:25:24.051Z,15.45
2023-04-02T18:30:32.295Z,16.05
2023-04-02T18:35:38.407Z,14.77
2023-04-02T18:40:51.789Z,15.02
2023-04-02T18:46:00.549Z,15.32
2023-04-02T18:51:04.358Z,15.90
2023-04-02T18:56:13.773Z,14.87
2023-04-02T19:01:22.604Z,15.60
2023-04-02T19:06:28.540Z,16.08
2023-04-02T19:11:30.348Z,15.13
2023-04-02T19:17:00.001Z,15.45
2023-04-02T19:22:14.128Z,15.55
2023-04-02T19:27:23.300Z,15.77
2023-04-02T19:32:33.225Z,14.98
2023-04-02T19:37:40.552Z,16.00
2023-04-02T19:42:47.433Z,15.65
2023-04-02T19:47:50.599Z,13.90
2023-04-02T19:52:52.472Z,16.85
2023-04-02T19:58:08.521Z,15.80
2023-04-02T20:03:17.851Z,15.30
2023-04-02T20:08:19.645Z,16.40
2023-04-02T20:13:21.444Z,15.60
2023-04-02T20:18:24.500Z,15.65
2023-04-02T20:23:26.256Z,15.32
2023-04-02T20:28:28.490Z,15.02
2023-04-02T20:33:31.692Z,15.27
2023-04-02T20:38:34.114Z,14.73
2023-04-02T20:43:36.727Z,14.27
2023-04-02T20:48:40.231Z,15.02
2023-04-02T20:53:42.225Z,16.17
2023-04-02T20:58:44.266Z,15.40
2023-04-02T21:03:49.016Z,15.05
2023-04-02T21:08:52.186Z,14.20
2023-04-02T21:13:54.029Z,15.02
2023-04-02T21:18:59.394Z,15.43
2023-04-02T21:24:03.177Z,14.85
2023-04-02T21:29:05.420Z,14.77
2023-04-02T21:34:09.805Z,15.73
2023-04-02T21:39:16.036Z,15.82
2023-04-02T21:44:19.110Z,15.05
2023-04-02T21:49:22.900Z,14.23
2023-04-02T21:54:24.860Z,15.83
2023-04-02T21:59:26.582Z,14.68
2023-04-02T22:04:29.698Z,16.55
2023-04-02T22:09:31.348Z,15.15
2023-04-02T22:14:33.471Z,14.80
2023-04-02T22:19:36.506Z,15.43
2023-04-02T22:24:38.152Z,15.02
2023-04-02T22:29:39.839Z,13.85
2023-04-02T22:34:42.858Z,14.93
2023-04-02T22:39:44.521Z,15.15
2023-04-02T22:44:46.208Z,14.18
2023-04-02T22:49:49.196Z,14.82
2023-04-02T22:54:50.861Z,14.48
2023-04-02T22:59:52.542Z,15.05
2023-04-02T23:04:55.585Z,15.65
2023-04-02T23:09:57.435Z,14.50
2023-04-02T23:14:59.107Z,15.60
2023-04-02T23:20:02.168Z,14.75
2023-04-02T23:25:04.407Z,14.25
2023-04-02T23:30:07.642Z,13.52
2023-04-02T23:35:10.757Z,14.65
2023-04-02T23:40:12.523Z,15.43
2023-04-02T23:45:14.379Z,15.68
2023-04-02T23:50:17.680Z,12.40
2023-04-02T23:55:19.361Z,13.13
